Time,TemperatureF,DewpointF,PressureIn,WindDirection,WindDirectionDegrees,WindSpeedMPH,WindSpeedGustMPH,Humidity,HourlyPrecipIn,Conditions,Clouds,dailyrainin,SoftwareType,DateUTC
2013-10-13 00:01:00,59.5,34.6,29.85,NNE,14,7.2,7.2,39,0.00,,SKC,0.00,VWS V14.01,2013-10-13 04:01:00,
2013-10-13 00:06:00,59.5,34.6,29.85,East,91,5.6,5.6,39,0.00,,SKC,0.00,VWS V14.01,2013-10-13 04:06:00,
2013-10-13 00:11:00,59.4,34.4,29.85,NNW,334,7.2,7.2,39,0.00,,SKC,0.00,VWS V14.01,2013-10-13 04:11:00,
2013-10-13 00:16:00,59.4,34.4,29.85,NNW,340,7.2,7.2,39,0.00,,SKC,0.00,VWS V14.01,2013-10-13 04:16:00,
2013-10-13 00:21:00,59.2,34.3,29.85,ENE,70,8.9,8.9,39,0.00,,SKC,0.00,VWS V14.01,2013-10-13 04:21:00,
2013-10-13 00:26:00,59.2,34.3,29.85,NNW,338,4.0,4.0,39,0.00,,SKC,0.00,VWS V14.01,2013-10-13 04:26:00,
2013-10-13 00:31:00,59.2,33.6,29.85,NNE,33,8.1,8.1,38,0.00,,SKC,0.00,VWS V14.01,2013-10-13 04:31:00,
2013-10-13 00:36:00,59.0,33.5,29.85,ENE,58,4.8,6.3,38,0.00,,SKC,0.00,VWS V14.01,2013-10-13 04:36:00,
2013-10-13 00:41:00,59.0,33.5,29.85,North,7,4.0,4.0,38,0.00,,SKC,0.00,VWS V14.01,2013-10-13 04:41:00,
2013-10-13 00:46:00,59.0,33.5,29.85,East,88,11.3,11.3,38,0.00,,SKC,0.00,VWS V14.01,2013-10-13 04:46:00,
2013-10-13 00:51:00,58.8,33.9,29.85,ESE,117,5.6,5.6,39,0.00,,SKC,0.00,VWS V14.01,2013-10-13 04:51:00,
2013-10-13 00:56:00,58.8,33.9,29.85,NNW,343,0.0,2.2,39,0.00,,SKC,0.00,VWS V14.01,2013-10-13 04:56:00,
2013-10-13 01:01:00,58.8,33.9,29.85,WNW,303,5.6,5.6,39,0.00,,SKC,0.00,VWS V14.01,2013-10-13 05:01:00,
2013-10-13 01:06:00,58.6,33.8,29.85,NE,42,0.0,3.1,39,0.00,,SKC,0.00,VWS V14.01,2013-10-13 05:06:00,
2013-10-13 01:11:00,58.6,33.8,29.85,North,0,4.8,4.8,39,0.00,,SKC,0.00,VWS V14.01,2013-10-13 05:11:00,
2013-10-13 01:16:00,58.6,33.8,29.85,NNW,337,0.0,0.0,39,0.00,,SKC,0.00,VWS V14.01,2013-10-13 05:16:00,
2013-10-13 01:21:00,58.5,33.6,29.85,NE,43,6.4,6.4,39,0.00,,SKC,0.00,VWS V14.01,2013-10-13 05:21:00,
2013-10-13 01:26:00,58.5,33.6,29.85,NNE,17,4.0,4.0,39,0.00,,SKC,0.00,VWS V14.01,2013-10-13 05:26:00,
2013-10-13 01:31:00,58.5,34.2,29.85,NNW,333,9.7,9.7,40,0.00,,SKC,0.00,VWS V14.01,2013-10-13 05:31:00,
2013-10-13 01:36:00,58.5,34.2,29.85,WNW,301,0.0,3.1,40,0.00,,SKC,0.00,VWS V14.01,2013-10-13 05:36:00,
2013-10-13 01:41:00,58.3,34.1,29.85,NE,52,11.3,11.3,40,0.00,,SKC,0.00,VWS V14.01,2013-10-13 05:41:00,
2013-10-13 01:46:00,58.1,33.9,29.85,NE,41,7.2,7.2,40,0.00,,SKC,0.00,VWS V14.01,2013-10-13 05:46:00,
2013-10-13 01:51:00,58.1,33.9,29.85,North,7,4.0,4.0,40,0.00,,SKC,0.00,VWS V14.01,2013-10-13 05:51:00,
2013-10-13 01:56:00,57.9,33.8,29.85,North,357,8.9,8.9,40,0.00,,SKC,0.00,VWS V14.01,2013-10-13 05:56:00,
2013-10-13 02:01:00,57.9,33.8,29.85,North,4,4.8,4.8,40,0.00,,SKC,0.00,VWS V14.01,2013-10-13 06:01:00,
2013-10-13 02:06:00,57.9,33.8,29.85,East,82,5.6,5.6,40,0.00,,SKC,0.00,VWS V14.01,2013-10-13 06:06:00,
2013-10-13 02:11:00,57.7,33.6,29.85,East,91,4.0,4.0,40,0.00,,SKC,0.00,VWS V14.01,2013-10-13 06:11:00,
2013-10-13 02:16:00,57.7,33.6,29.85,NNE,28,5.6,5.6,40,0.00,,SKC,0.00,VWS V14.01,2013-10-13 06:16:00,
2013-10-13 02:21:00,57.6,34.1,29.85,ESE,103,0.0,2.7,41,0.00,,SKC,0.00,VWS V14.01,2013-10-13 06:21:00,
2013-10-13 02:26:00,57.4,33.9,29.85,NE,48,8.9,8.9,41,0.00,,SKC,0.00,VWS V14.01,2013-10-13 06:26:00,
2013-10-13 02:31:00,57.2,33.7,29.85,NE,47,4.8,4.8,41,0.00,,SKC,0.00,VWS V14.01,2013-10-13 06:31:00,
2013-10-13 02:36:00,57.0,34.2,29.85,NE,54,0.0,0.0,42,0.00,,SKC,0.00,VWS V14.01,2013-10-13 06:36:00,
2013-10-13 02:41:00,56.8,34.0,29.85,North,1,0.0,0.0,42,0.00,,SKC,0.00,VWS V14.01,2013-10-13 06:41:00,
2013-10-13 02:46:00,56.7,33.8,29.85,ENE,62,6.4,6.4,42,0.00,,SKC,0.00,VWS V14.01,2013-10-13 06:46:00,
2013-10-13 02:51:00,56.7,33.8,29.85,NNW,340,5.6,5.6,42,0.00,,SKC,0.00,VWS V14.01,2013-10-13 06:51:00,
2013-10-13 02:56:00,56.5,34.3,29.85,NNE,21,8.9,8.9,43,0.00,,SKC,0.00,VWS V14.01,2013-10-13 06:56:00,
2013-10-13 03:01:00,56.3,33.5,29.85,NE,48,4.8,4.8,42,0.00,,SKC,0.00,VWS V14.01,2013-10-13 07:01:00,
2013-10-13 03:06:00,56.3,33.5,29.85,NNW,336,6.4,6.4,42,0.00,,SKC,0.00,VWS V14.01,2013-10-13 07:06:00,
2013-10-13 03:11:00,56.3,34.1,29.85,ENE,63,4.8,4.8,43,0.00,,SKC,0.00,VWS V14.01,2013-10-13 07:11:00,
2013-10-13 03:16:00,56.1,33.4,29.85,NNW,330,6.4,6.4,42,0.00,,SKC,0.00,VWS V14.01,2013-10-13 07:16:00,
2013-10-13 03:21:00,55.9,33.8,29.85,NW,313,4.8,4.8,43,0.00,,SKC,0.00,VWS V14.01,2013-10-13 07:21:00,
2013-10-13 03:26:00,55.9,33.8,29.85,NE,45,4.0,4.0,43,0.00,,SKC,0.00,VWS V14.01,2013-10-13 07:26:00,
2013-10-13 03:31:00,55.9,34.4,29.85,North,353,4.8,4.8,44,0.00,,SKC,0.00,VWS V14.01,2013-10-13 07:31:00,
2013-10-13 03:36:00,55.9,34.4,29.85,NNE,27,0.0,0.0,44,0.00,,SKC,0.00,VWS V14.01,2013-10-13 07:36:00,
2013-10-13 03:41:00,55.9,34.4,29.85,ENE,69,4.8,4.8,44,0.00,,SKC,0.00,VWS V14.01,2013-10-13 07:41:00,
2013-10-13 03:46:00,55.9,34.4,29.85,NNW,339,5.6,5.6,44,0.00,,SKC,0.00,VWS V14.01,2013-10-13 07:46:00,
2013-10-13 03:51:00,55.8,34.2,29.85,NNE,30,0.0,0.0,44,0.00,,SKC,0.00,VWS V14.01,2013-10-13 07:51:00,
2013-10-13 03:56:00,55.9,34.4,29.85,NE,53,8.9,8.9,44,0.00,,SKC,0.00,VWS V14.01,2013-10-13 07:56:00,
2013-10-13 04:01:00,55.9,33.8,29.85,NE,37,4.8,4.8,43,0.00,,SKC,0.00,VWS V14.01,2013-10-13 08:01:00,
2013-10-13 04:06:00,55.9,33.8,29.85,NNW,348,0.0,0.0,43,0.00,,SKC,0.00,VWS V14.01,2013-10-13 08:06:00,
2013-10-13 04:11:00,55.8,33.6,29.85,North,357,7.2,7.2,43,0.00,,SKC,0.00,VWS V14.01,2013-10-13 08:11:00,
2013-10-13 04:16:00,55.8,33.6,29.85,NNE,21,5.6,5.6,43,0.00,,SKC,0.00,VWS V14.01,2013-10-13 08:16:00,
2013-10-13 04:21:00,55.6,32.9,29.85,NE,56,10.5,10.5,42,0.00,,SKC,0.00,VWS V14.01,2013-10-13 08:21:00,
2013-10-13 04:26:00,55.6,33.5,29.85,NNE,20,6.4,6.4,43,0.00,,SKC,0.00,VWS V14.01,2013-10-13 08:26:00,
2013-10-13 04:31:00,55.6,32.9,29.85,ENE,76,4.8,4.8,42,0.00,,SKC,0.00,VWS V14.01,2013-10-13 08:31:00,
2013-10-13 04:36:00,55.4,32.7,29.85,East,87,0.0,3.1,42,0.00,,SKC,0.00,VWS V14.01,2013-10-13 08:36:00,
2013-10-13 04:41:00,55.2,33.1,29.85,NNE,24,4.8,5.4,43,0.00,,SKC,0.00,VWS V14.01,2013-10-13 08:41:00,
2013-10-13 04:46:00,55.0,33.0,29.85,North,3,0.0,2.7,43,0.00,,SKC,0.00,VWS V14.01,2013-10-13 08:46:00,
2013-10-13 04:51:00,55.0,34.1,29.85,NE,36,4.0,4.0,45,0.00,,SKC,0.00,VWS V14.01,2013-10-13 08:51:00,
2013-10-13 04:56:00,54.9,33.9,29.85,NNE,28,0.0,0.0,45,0.00,,SKC,0.00,VWS V14.01,2013-10-13 08:56:00,
2013-10-13 05:01:00,54.7,33.8,29.85,NNE,28,0.0,0.0,45,0.00,,SKC,0.00,VWS V14.01,2013-10-13 09:01:00,
2013-10-13 05:06:00,54.5,34.2,29.85,NNE,30,5.6,5.6,46,0.00,,SKC,0.00,VWS V14.01,2013-10-13 09:06:00,
2013-10-13 05:11:00,54.5,34.2,29.85,NNE,28,6.4,6.4,46,0.00,,SKC,0.00,VWS V14.01,2013-10-13 09:11:00,
2013-10-13 05:16:00,54.3,34.0,29.85,NNE,22,6.4,6.4,46,0.00,,SKC,0.00,VWS V14.01,2013-10-13 09:16:00,
2013-10-13 05:21:00,54.1,34.4,29.85,NNE,32,5.6,5.6,47,0.00,,SKC,0.00,VWS V14.01,2013-10-13 09:21:00,
2013-10-13 05:25:00,54.1,34.4,29.85,NNE,20,4.0,4.0,47,0.00,,SKC,0.00,VWS V14.01,2013-10-13 09:25:00,
2013-10-13 05:30:00,54.1,34.9,29.85,North,0,0.0,0.0,48,0.00,,SKC,0.00,VWS V14.01,2013-10-13 09:30:00,
2013-10-13 05:35:00,54.0,34.7,29.85,NE,45,7.2,7.2,48,0.00,,SKC,0.00,VWS V14.01,2013-10-13 09:35:00,
2013-10-13 05:40:00,54.0,35.2,29.85,ENE,76,0.0,0.0,49,0.00,,SKC,0.00,VWS V14.01,2013-10-13 09:40:00,
2013-10-13 05:45:00,53.8,34.6,29.85,NE,55,0.0,3.1,48,0.00,,SKC,0.00,VWS V14.01,2013-10-13 09:45:00,
2013-10-13 05:50:00,53.8,34.6,29.85,NE,55,0.0,0.0,48,0.00,,SKC,0.00,VWS V14.01,2013-10-13 09:50:00,
2013-10-13 05:55:00,53.6,34.4,29.88,North,3,0.0,2.2,48,0.00,,SKC,0.00,VWS V14.01,2013-10-13 09:55:00,
2013-10-13 06:00:00,53.6,34.4,29.88,NE,41,4.0,4.0,48,0.00,,SKC,0.00,VWS V14.01,2013-10-13 10:00:00,
2013-10-13 06:05:00,53.4,35.3,29.88,North,357,0.0,2.7,50,0.00,,SKC,0.00,VWS V14.01,2013-10-13 10:05:00,
2013-10-13 06:10:00,53.4,34.8,29.88,NNW,329,0.0,0.0,49,0.00,,SKC,0.00,VWS V14.01,2013-10-13 10:10:00,
2013-10-13 06:15:00,53.4,34.8,29.88,NE,38,0.0,0.0,49,0.00,,SKC,0.00,VWS V14.01,2013-10-13 10:15:00,
2013-10-13 06:20:00,53.2,35.1,29.88,North,0,0.0,0.0,50,0.00,,SKC,0.00,VWS V14.01,2013-10-13 10:20:00,
2013-10-13 06:25:00,53.2,35.1,29.88,NNW,328,0.0,0.0,50,0.00,,SKC,0.00,VWS V14.01,2013-10-13 10:25:00,
2013-10-13 06:30:00,53.2,35.1,29.88,ESE,119,0.0,0.0,50,0.00,,SKC,0.00,VWS V14.01,2013-10-13 10:30:00,
2013-10-13 06:35:00,53.2,35.1,29.88,NNE,17,0.0,0.0,50,0.00,,SKC,0.00,VWS V14.01,2013-10-13 10:35:00,
2013-10-13 06:40:00,53.1,34.9,29.88,North,353,0.0,0.0,50,0.00,,SKC,0.00,VWS V14.01,2013-10-13 10:40:00,
2013-10-13 06:45:00,53.1,34.9,29.88,NNE,32,0.0,0.0,50,0.00,,SKC,0.00,VWS V14.01,2013-10-13 10:45:00,
2013-10-13 06:50:00,53.1,34.9,29.88,NW,322,0.0,2.7,50,0.00,,SKC,0.00,VWS V14.01,2013-10-13 10:50:00,
2013-10-13 06:55:00,52.9,34.8,29.91,NW,322,0.0,0.0,50,0.00,,SKC,0.00,VWS V14.01,2013-10-13 10:55:00,
2013-10-13 07:00:00,52.9,34.8,29.91,NW,322,0.0,0.0,50,0.00,,SKC,0.00,VWS V14.01,2013-10-13 11:00:00,
2013-10-13 07:05:00,52.7,34.6,29.91,NW,322,0.0,0.0,50,0.00,,SKC,0.00,VWS V14.01,2013-10-13 11:05:00,
2013-10-13 07:10:00,52.7,35.1,29.91,ENE,65,0.0,2.7,51,0.00,,SKC,0.00,VWS V14.01,2013-10-13 11:10:00,
2013-10-13 07:15:00,52.5,34.9,29.91,North,6,0.0,0.0,51,0.00,,SKC,0.00,VWS V14.01,2013-10-13 11:15:00,
2013-10-13 07:20:00,52.7,35.1,29.91,NNE,28,0.0,0.0,51,0.00,,SKC,0.00,VWS V14.01,2013-10-13 11:20:00,
2013-10-13 07:25:00,52.5,34.9,29.91,NNE,25,0.0,0.0,51,0.00,,SKC,0.00,VWS V14.01,2013-10-13 11:25:00,
2013-10-13 07:30:00,52.7,35.6,29.91,NNE,31,4.8,4.8,52,0.00,,SKC,0.00,VWS V14.01,2013-10-13 11:30:00,
2013-10-13 07:35:00,52.7,35.6,29.91,North,2,0.0,0.0,52,0.00,,SKC,0.00,VWS V14.01,2013-10-13 11:35:00,
2013-10-13 07:40:00,52.7,36.1,29.91,North,353,0.0,0.0,53,0.00,,SKC,0.00,VWS V14.01,2013-10-13 11:40:00,
2013-10-13 07:45:00,52.7,36.1,29.91,NNW,346,0.0,2.7,53,0.00,,SKC,0.00,VWS V14.01,2013-10-13 11:45:00,
2013-10-13 07:50:00,52.9,36.2,29.91,East,81,7.2,7.2,53,0.00,,SKC,0.00,VWS V14.01,2013-10-13 11:50:00,
2013-10-13 07:55:00,53.1,35.9,29.91,NNE,21,4.0,4.0,52,0.00,,SKC,0.00,VWS V14.01,2013-10-13 11:55:00,
2013-10-13 08:00:00,53.2,36.1,29.91,NNE,30,4.8,4.8,52,0.00,,SKC,0.00,VWS V14.01,2013-10-13 12:00:00,
2013-10-13 08:05:00,53.4,35.8,29.91,NNE,32,5.6,5.6,51,0.00,,SKC,0.00,VWS V14.01,2013-10-13 12:05:00,
2013-10-13 08:10:00,53.6,35.4,29.94,North,0,5.6,5.6,50,0.00,,SKC,0.00,VWS V14.01,2013-10-13 12:10:00,
2013-10-13 08:15:00,53.6,34.9,29.94,NNW,337,0.0,2.2,49,0.00,,SKC,0.00,VWS V14.01,2013-10-13 12:15:00,
2013-10-13 08:20:00,53.6,34.4,29.94,ENE,59,4.0,4.0,48,0.00,,SKC,0.00,VWS V14.01,2013-10-13 12:20:00,
2013-10-13 08:25:00,53.8,33.5,29.91,ENE,57,5.6,6.3,46,0.00,,SKC,0.00,VWS V14.01,2013-10-13 12:25:00,
2013-10-13 08:30:00,53.8,33.5,29.91,NNE,23,10.5,10.5,46,0.00,,SKC,0.00,VWS V14.01,2013-10-13 12:30:00,
2013-10-13 08:35:00,53.8,33.5,29.91,NNW,344,4.8,4.8,46,0.00,,SKC,0.00,VWS V14.01,2013-10-13 12:35:00,
2013-10-13 08:40:00,53.8,33.5,29.94,ENE,63,5.6,5.6,46,0.00,,SKC,0.00,VWS V14.01,2013-10-13 12:40:00,
2013-10-13 08:45:00,54.0,33.7,29.94,NW,313,0.0,0.0,46,0.00,,SKC,0.00,VWS V14.01,2013-10-13 12:45:00,
2013-10-13 08:50:00,54.0,33.1,29.94,SE,133,4.8,4.8,45,0.00,,SKC,0.00,VWS V14.01,2013-10-13 12:50:00,
2013-10-13 08:55:00,54.0,33.1,29.94,ENE,74,10.5,10.5,45,0.00,,SKC,0.00,VWS V14.01,2013-10-13 12:55:00,
2013-10-13 09:00:00,54.0,33.1,29.94,NE,45,5.6,5.6,45,0.00,,SKC,0.00,VWS V14.01,2013-10-13 13:00:00,
2013-10-13 09:05:00,54.0,33.1,29.94,NNE,18,9.7,9.7,45,0.00,,SKC,0.00,VWS V14.01,2013-10-13 13:05:00,
2013-10-13 09:10:00,54.0,33.1,29.94,North,7,7.2,7.2,45,0.00,,SKC,0.00,VWS V14.01,2013-10-13 13:10:00,
2013-10-13 09:15:00,54.0,33.1,29.94,NE,48,4.8,4.8,45,0.00,,SKC,0.00,VWS V14.01,2013-10-13 13:15:00,
2013-10-13 09:20:00,54.0,32.6,29.94,ENE,62,9.7,9.7,44,0.00,,SKC,0.00,VWS V14.01,2013-10-13 13:20:00,
2013-10-13 09:25:00,54.0,32.6,29.94,NE,40,5.6,5.6,44,0.00,,SKC,0.00,VWS V14.01,2013-10-13 13:25:00,
2013-10-13 09:30:00,54.0,32.6,29.94,East,95,7.2,7.2,44,0.00,,SKC,0.00,VWS V14.01,2013-10-13 13:30:00,
2013-10-13 09:35:00,54.0,32.6,29.94,South,180,5.6,5.6,44,0.00,,SKC,0.00,VWS V14.01,2013-10-13 13:35:00,
2013-10-13 09:40:00,54.1,32.2,29.94,ESE,106,7.2,7.2,43,0.00,,SKC,0.00,VWS V14.01,2013-10-13 13:40:00,
2013-10-13 09:45:00,54.0,32.0,29.94,ESE,110,7.2,7.2,43,0.00,,SKC,0.00,VWS V14.01,2013-10-13 13:45:00,
2013-10-13 09:50:00,54.0,32.0,29.94,East,81,8.9,8.9,43,0.00,,SKC,0.00,VWS V14.01,2013-10-13 13:50:00,
2013-10-13 09:55:00,54.1,32.2,29.94,NNE,21,7.2,7.2,43,0.00,,SKC,0.00,VWS V14.01,2013-10-13 13:55:00,
2013-10-13 10:00:00,54.3,31.7,29.94,NE,38,7.2,7.2,42,0.00,,SKC,0.00,VWS V14.01,2013-10-13 14:00:00,
2013-10-13 10:05:00,54.5,32.5,29.94,NNW,344,0.0,4.0,43,0.00,,SKC,0.00,VWS V14.01,2013-10-13 14:05:00,
2013-10-13 10:10:00,54.9,32.8,29.94,NE,54,6.4,6.4,43,0.00,,SKC,0.00,VWS V14.01,2013-10-13 14:10:00,
2013-10-13 10:15:00,55.0,31.8,29.94,NNE,13,4.0,4.0,41,0.00,,SKC,0.00,VWS V14.01,2013-10-13 14:15:00,
2013-10-13 10:20:00,55.0,31.8,29.94,NNW,337,0.0,0.0,41,0.00,,SKC,0.00,VWS V14.01,2013-10-13 14:20:00,
2013-10-13 10:25:00,55.4,31.5,29.94,East,91,10.5,10.5,40,0.00,,SKC,0.00,VWS V14.01,2013-10-13 14:25:00,
2013-10-13 10:30:00,55.4,31.5,29.94,NNE,23,0.0,5.4,40,0.00,,SKC,0.00,VWS V14.01,2013-10-13 14:30:00,
2013-10-13 10:35:00,55.4,31.5,29.94,North,4,0.0,0.0,40,0.00,,SKC,0.00,VWS V14.01,2013-10-13 14:35:00,
2013-10-13 10:40:00,55.8,31.8,29.94,ENE,57,11.3,11.3,40,0.00,,SKC,0.00,VWS V14.01,2013-10-13 14:40:00,
2013-10-13 10:45:00,55.8,31.2,29.94,ESE,111,6.4,6.4,39,0.00,,SKC,0.00,VWS V14.01,2013-10-13 14:45:00,
2013-10-13 10:50:00,55.8,31.2,29.94,ENE,58,4.8,5.4,39,0.00,,SKC,0.00,VWS V14.01,2013-10-13 14:50:00,
2013-10-13 10:55:00,56.1,31.5,29.94,NNE,31,5.6,5.6,39,0.00,,SKC,0.00,VWS V14.01,2013-10-13 14:55:00,
2013-10-13 11:00:00,56.5,31.2,29.94,ESE,116,4.0,6.3,38,0.00,,SKC,0.00,VWS V14.01,2013-10-13 15:00:00,
2013-10-13 11:05:00,56.5,31.2,29.94,NNW,328,4.0,4.0,38,0.00,,SKC,0.00,VWS V14.01,2013-10-13 15:05:00,
2013-10-13 11:10:00,56.5,31.2,29.94,NNE,24,0.0,3.6,38,0.00,,SKC,0.00,VWS V14.01,2013-10-13 15:10:00,
2013-10-13 11:15:00,56.7,31.4,29.94,NNW,338,6.4,6.4,38,0.00,,SKC,0.00,VWS V14.01,2013-10-13 15:15:00,
2013-10-13 11:20:00,56.7,30.7,29.94,North,357,5.6,5.8,37,0.00,,SKC,0.00,VWS V14.01,2013-10-13 15:20:00,
2013-10-13 11:25:00,56.7,30.7,29.94,East,85,4.8,4.8,37,0.00,,SKC,0.00,VWS V14.01,2013-10-13 15:25:00,
2013-10-13 11:30:00,56.8,31.5,29.94,NE,46,8.9,8.9,38,0.00,,SKC,0.00,VWS V14.01,2013-10-13 15:30:00,
2013-10-13 11:35:00,56.8,30.9,29.94,SE,131,4.8,4.8,37,0.00,,SKC,0.00,VWS V14.01,2013-10-13 15:35:00,
2013-10-13 11:39:00,57.2,31.2,29.94,NE,56,4.8,4.8,37,0.00,,SKC,0.00,VWS V14.01,2013-10-13 15:39:00,
2013-10-13 11:44:00,57.7,31.7,29.94,East,96,4.8,4.8,37,0.00,,SKC,0.00,VWS V14.01,2013-10-13 15:44:00,
2013-10-13 11:49:00,58.6,31.1,29.94,East,98,4.8,4.8,35,0.00,,SKC,0.00,VWS V14.01,2013-10-13 15:49:00,
2013-10-13 11:54:00,59.0,30.7,29.94,NE,35,7.2,7.2,34,0.00,,SKC,0.00,VWS V14.01,2013-10-13 15:54:00,
2013-10-13 11:59:00,59.0,30.7,29.94,ENE,71,12.1,12.1,34,0.00,,SKC,0.00,VWS V14.01,2013-10-13 15:59:00,
2013-10-13 12:04:00,58.8,31.2,29.94,NE,44,6.4,6.4,35,0.00,,SKC,0.00,VWS V14.01,2013-10-13 16:04:00,
2013-10-13 12:09:00,59.2,30.9,29.94,NE,45,9.7,9.7,34,0.00,,SKC,0.00,VWS V14.01,2013-10-13 16:09:00,
2013-10-13 12:14:00,59.2,30.9,29.94,North,357,0.0,0.0,34,0.00,,SKC,0.00,VWS V14.01,2013-10-13 16:14:00,
2013-10-13 12:19:00,59.2,30.9,29.94,NE,45,0.0,0.0,34,0.00,,SKC,0.00,VWS V14.01,2013-10-13 16:19:00,
2013-10-13 12:24:00,59.2,30.9,29.94,WSW,252,0.0,0.0,34,0.00,,SKC,0.00,VWS V14.01,2013-10-13 16:24:00,
2013-10-13 12:29:00,59.4,31.7,29.94,SW,226,0.0,0.0,35,0.00,,SKC,0.00,VWS V14.01,2013-10-13 16:29:00,
2013-10-13 12:34:00,60.3,31.8,29.94,NNW,329,5.6,5.6,34,0.00,,SKC,0.00,VWS V14.01,2013-10-13 16:34:00,
2013-10-13 12:39:00,61.0,30.2,29.94,West,267,9.7,9.7,31,0.00,,SKC,0.00,VWS V14.01,2013-10-13 16:39:00,
2013-10-13 12:44:00,61.5,30.6,29.94,NNE,13,0.0,0.0,31,0.00,,SKC,0.00,VWS V14.01,2013-10-13 16:44:00,
2013-10-13 12:49:00,62.1,31.1,29.94,WNW,298,0.0,0.0,31,0.00,,SKC,0.00,VWS V14.01,2013-10-13 16:49:00,
2013-10-13 12:54:00,62.2,29.6,29.91,NNE,26,0.0,2.7,29,0.00,,SKC,0.00,VWS V14.01,2013-10-13 16:54:00,
2013-10-13 12:59:00,62.2,29.6,29.91,East,98,5.6,5.6,29,0.00,,SKC,0.00,VWS V14.01,2013-10-13 16:59:00,
2013-10-13 13:04:00,62.2,29.6,29.91,NE,45,11.3,11.3,29,0.00,,SKC,0.00,VWS V14.01,2013-10-13 17:04:00,
2013-10-13 13:09:00,62.2,29.6,29.91,West,273,4.8,4.8,29,0.00,,SKC,0.00,VWS V14.01,2013-10-13 17:09:00,
2013-10-13 13:14:00,62.2,29.6,29.91,SW,226,4.0,4.0,29,0.00,,SKC,0.00,VWS V14.01,2013-10-13 17:14:00,
2013-10-13 13:19:00,62.4,29.8,29.91,North,1,4.8,4.8,29,0.00,,SKC,0.00,VWS V14.01,2013-10-13 17:19:00,
2013-10-13 13:24:00,62.6,29.9,29.91,West,277,4.8,4.8,29,0.00,,SKC,0.00,VWS V14.01,2013-10-13 17:24:00,
2013-10-13 13:29:00,63.1,29.5,29.91,NNE,12,0.0,0.0,28,0.00,,SKC,0.00,VWS V14.01,2013-10-13 17:29:00,
2013-10-13 13:34:00,64.0,30.3,29.91,SSW,212,5.6,6.3,28,0.00,,SKC,0.00,VWS V14.01,2013-10-13 17:34:00,
2013-10-13 13:39:00,64.2,29.6,29.91,WSW,247,6.4,6.4,27,0.00,,SKC,0.00,VWS V14.01,2013-10-13 17:39:00,
2013-10-13 13:44:00,63.9,29.3,29.91,ENE,61,0.0,4.0,27,0.00,,SKC,0.00,VWS V14.01,2013-10-13 17:44:00,
2013-10-13 13:49:00,63.7,29.1,29.91,NE,50,7.2,7.2,27,0.00,,SKC,0.00,VWS V14.01,2013-10-13 17:49:00,
2013-10-13 13:54:00,63.9,29.3,29.91,NNW,338,0.0,2.2,27,0.00,,SKC,0.00,VWS V14.01,2013-10-13 17:54:00,
2013-10-13 13:59:00,64.0,29.4,29.91,SE,144,0.0,2.7,27,0.00,,SKC,0.00,VWS V14.01,2013-10-13 17:59:00,
2013-10-13 14:04:00,64.0,29.4,29.91,NE,56,0.0,0.0,27,0.00,,SKC,0.00,VWS V14.01,2013-10-13 18:04:00,
2013-10-13 14:09:00,64.0,29.4,29.91,SE,139,4.0,4.0,27,0.00,,SKC,0.00,VWS V14.01,2013-10-13 18:09:00,
2013-10-13 14:14:00,64.0,29.4,29.91,SSE,168,9.7,9.7,27,0.00,,SKC,0.00,VWS V14.01,2013-10-13 18:14:00,
2013-10-13 14:19:00,64.0,29.4,29.91,SW,222,6.4,6.4,27,0.00,,SKC,0.00,VWS V14.01,2013-10-13 18:19:00,
2013-10-13 14:24:00,64.0,29.4,29.91,SSE,167,6.4,6.4,27,0.00,,SKC,0.00,VWS V14.01,2013-10-13 18:24:00,
2013-10-13 14:29:00,63.9,29.3,29.91,SSE,164,0.0,5.4,27,0.00,,SKC,0.00,VWS V14.01,2013-10-13 18:29:00,
2013-10-13 14:34:00,63.9,30.1,29.91,WNW,286,4.0,4.0,28,0.00,,SKC,0.00,VWS V14.01,2013-10-13 18:34:00,
2013-10-13 14:39:00,64.0,30.3,29.91,WNW,287,0.0,0.0,28,0.00,,SKC,0.00,VWS V14.01,2013-10-13 18:39:00,
2013-10-13 14:44:00,64.2,30.5,29.91,SE,127,0.0,0.0,28,0.00,,SKC,0.00,VWS V14.01,2013-10-13 18:44:00,
2013-10-13 14:49:00,64.4,29.7,29.91,SE,126,0.0,0.0,27,0.00,,SKC,0.00,VWS V14.01,2013-10-13 18:49:00,
2013-10-13 14:54:00,64.4,29.7,29.91,NNW,335,0.0,3.6,27,0.00,,SKC,0.00,VWS V14.01,2013-10-13 18:54:00,
2013-10-13 14:59:00,64.2,29.6,29.91,ESE,122,5.6,5.6,27,0.00,,SKC,0.00,VWS V14.01,2013-10-13 18:59:00,
2013-10-13 15:04:00,63.9,29.3,29.91,North,9,0.0,2.2,27,0.00,,SKC,0.00,VWS V14.01,2013-10-13 19:04:00,
2013-10-13 15:09:00,63.9,30.1,29.91,North,353,4.0,4.0,28,0.00,,SKC,0.00,VWS V14.01,2013-10-13 19:09:00,
2013-10-13 15:14:00,63.9,30.1,29.91,South,189,0.0,5.8,28,0.00,,SKC,0.00,VWS V14.01,2013-10-13 19:14:00,
2013-10-13 15:19:00,63.7,30.0,29.91,NE,47,0.0,2.2,28,0.00,,SKC,0.00,VWS V14.01,2013-10-13 19:19:00,
2013-10-13 15:24:00,63.3,29.7,29.88,SW,222,4.0,4.0,28,0.00,,SKC,0.00,VWS V14.01,2013-10-13 19:24:00,
2013-10-13 15:29:00,63.1,29.5,29.88,NW,308,0.0,0.0,28,0.00,,SKC,0.00,VWS V14.01,2013-10-13 19:29:00,
2013-10-13 15:34:00,63.3,30.5,29.88,SSW,211,0.0,0.0,29,0.00,,SKC,0.00,VWS V14.01,2013-10-13 19:34:00,
2013-10-13 15:39:00,63.5,30.7,29.88,ESE,115,4.8,4.8,29,0.00,,SKC,0.00,VWS V14.01,2013-10-13 19:39:00,
2013-10-13 15:44:00,63.5,29.8,29.88,SE,128,7.2,7.2,28,0.00,,SKC,0.00,VWS V14.01,2013-10-13 19:44:00,
2013-10-13 15:49:00,63.1,29.5,29.88,West,265,7.2,7.2,28,0.00,,SKC,0.00,VWS V14.01,2013-10-13 19:49:00,
2013-10-13 15:54:00,62.6,29.9,29.88,ESE,119,5.6,5.8,29,0.00,,SKC,0.00,VWS V14.01,2013-10-13 19:54:00,
2013-10-13 15:59:00,62.4,30.6,29.88,ESE,109,5.6,5.6,30,0.00,,SKC,0.00,VWS V14.01,2013-10-13 19:59:00,
2013-10-13 16:04:00,62.6,30.8,29.88,West,266,0.0,3.1,30,0.00,,SKC,0.00,VWS V14.01,2013-10-13 20:04:00,
2013-10-13 16:09:00,62.4,30.6,29.88,West,260,0.0,0.0,30,0.00,,SKC,0.00,VWS V14.01,2013-10-13 20:09:00,
2013-10-13 16:14:00,62.2,31.2,29.88,NW,306,0.0,0.0,31,0.00,,SKC,0.00,VWS V14.01,2013-10-13 20:14:00,
2013-10-13 16:19:00,62.1,31.1,29.88,SW,229,0.0,0.0,31,0.00,,SKC,0.00,VWS V14.01,2013-10-13 20:19:00,
2013-10-13 16:24:00,61.7,30.8,29.88,West,265,8.1,8.1,31,0.00,,SKC,0.00,VWS V14.01,2013-10-13 20:24:00,
2013-10-13 16:29:00,61.7,31.6,29.88,South,175,4.0,4.0,32,0.00,,SKC,0.00,VWS V14.01,2013-10-13 20:29:00,
2013-10-13 16:34:00,61.7,31.6,29.88,West,271,4.0,4.0,32,0.00,,SKC,0.00,VWS V14.01,2013-10-13 20:34:00,
2013-10-13 16:39:00,61.7,31.6,29.88,WNW,300,6.4,6.4,32,0.00,,SKC,0.00,VWS V14.01,2013-10-13 20:39:00,
2013-10-13 16:44:00,61.5,32.2,29.88,NE,37,4.8,4.8,33,0.00,,SKC,0.00,VWS V14.01,2013-10-13 20:44:00,
2013-10-13 16:49:00,61.5,32.9,29.88,ENE,60,4.8,4.8,34,0.00,,SKC,0.00,VWS V14.01,2013-10-13 20:49:00,
2013-10-13 16:54:00,61.3,32.8,29.88,WSW,237,0.0,0.0,34,0.00,,SKC,0.00,VWS V14.01,2013-10-13 20:54:00,
2013-10-13 16:59:00,61.3,32.8,29.88,NNE,14,0.0,0.0,34,0.00,,SKC,0.00,VWS V14.01,2013-10-13 20:59:00,
2013-10-13 17:04:00,61.2,32.6,29.88,South,184,4.0,5.4,34,0.00,,SKC,0.00,VWS V14.01,2013-10-13 21:04:00,
2013-10-13 17:09:00,61.0,32.4,29.88,WSW,252,0.0,0.0,34,0.00,,SKC,0.00,VWS V14.01,2013-10-13 21:09:00,
2013-10-13 17:14:00,61.0,32.4,29.88,SW,226,4.0,4.0,34,0.00,,SKC,0.00,VWS V14.01,2013-10-13 21:14:00,
2013-10-13 17:19:00,60.8,32.3,29.88,SSW,201,4.8,4.8,34,0.00,,SKC,0.00,VWS V14.01,2013-10-13 21:19:00,
2013-10-13 17:24:00,60.6,32.8,29.88,ESE,107,0.0,3.6,35,0.00,,SKC,0.00,VWS V14.01,2013-10-13 21:24:00,
2013-10-13 17:29:00,60.4,32.7,29.88,WSW,243,0.0,0.0,35,0.00,,SKC,0.00,VWS V14.01,2013-10-13 21:29:00,
2013-10-13 17:34:00,60.3,32.5,29.88,WSW,241,0.0,0.0,35,0.00,,SKC,0.00,VWS V14.01,2013-10-13 21:34:00,
2013-10-13 17:39:00,60.1,32.4,29.88,NW,320,0.0,3.6,35,0.00,,SKC,0.00,VWS V14.01,2013-10-13 21:39:00,
2013-10-13 17:44:00,59.9,32.9,29.88,NNE,14,0.0,0.0,36,0.00,,SKC,0.00,VWS V14.01,2013-10-13 21:44:00,
2013-10-13 17:49:00,59.5,32.6,29.88,West,264,0.0,0.0,36,0.00,,SKC,0.00,VWS V14.01,2013-10-13 21:49:00,
2013-10-13 17:54:00,59.4,32.4,29.88,ENE,61,0.0,0.0,36,0.00,,SKC,0.00,VWS V14.01,2013-10-13 21:54:00,
2013-10-13 17:59:00,59.2,33.0,29.88,NNE,32,0.0,4.0,37,0.00,,SKC,0.00,VWS V14.01,2013-10-13 21:59:00,
2013-10-13 18:04:00,59.0,32.8,29.88,NNE,32,0.0,0.0,37,0.00,,SKC,0.00,VWS V14.01,2013-10-13 22:04:00,
2013-10-13 18:09:00,58.8,33.3,29.88,NE,38,0.0,2.7,38,0.00,,SKC,0.00,VWS V14.01,2013-10-13 22:09:00,
2013-10-13 18:14:00,58.6,33.1,29.88,NNE,28,0.0,0.0,38,0.00,,SKC,0.00,VWS V14.01,2013-10-13 22:14:00,
2013-10-13 18:19:00,58.5,32.3,29.88,NNE,28,0.0,0.0,37,0.00,,SKC,0.00,VWS V14.01,2013-10-13 22:19:00,
2013-10-13 18:24:00,58.1,32.7,29.88,NNE,28,0.0,0.0,38,0.00,,SKC,0.00,VWS V14.01,2013-10-13 22:24:00,
2013-10-13 18:29:00,58.1,32.7,29.88,NNE,28,0.0,0.0,38,0.00,,SKC,0.00,VWS V14.01,2013-10-13 22:29:00,
2013-10-13 18:34:00,57.7,32.3,29.88,NNE,28,0.0,0.0,38,0.00,,SKC,0.00,VWS V14.01,2013-10-13 22:34:00,
2013-10-13 18:39:00,57.6,32.2,29.88,NNE,28,0.0,0.0,38,0.00,,SKC,0.00,VWS V14.01,2013-10-13 22:39:00,
2013-10-13 18:44:00,57.2,32.5,29.88,NNE,28,0.0,0.0,39,0.00,,SKC,0.00,VWS V14.01,2013-10-13 22:44:00,
2013-10-13 18:49:00,57.0,33.0,29.88,NNE,28,0.0,0.0,40,0.00,,SKC,0.00,VWS V14.01,2013-10-13 22:49:00,
2013-10-13 18:53:00,56.8,32.8,29.88,NNE,28,0.0,0.0,40,0.00,,SKC,0.00,VWS V14.01,2013-10-13 22:53:00,
2013-10-13 18:58:00,56.7,32.6,29.91,NNE,28,0.0,0.0,40,0.00,,SKC,0.00,VWS V14.01,2013-10-13 22:58:00,
2013-10-13 19:03:00,56.5,32.5,29.91,NNE,28,0.0,0.0,40,0.00,,SKC,0.00,VWS V14.01,2013-10-13 23:03:00,
2013-10-13 19:08:00,56.3,32.9,29.91,NNE,28,0.0,0.0,41,0.00,,SKC,0.00,VWS V14.01,2013-10-13 23:08:00,
2013-10-13 19:13:00,56.1,32.8,29.91,NNE,28,0.0,0.0,41,0.00,,SKC,0.00,VWS V14.01,2013-10-13 23:13:00,
2013-10-13 19:18:00,55.9,32.6,29.91,NNE,28,0.0,0.0,41,0.00,,SKC,0.00,VWS V14.01,2013-10-13 23:18:00,
2013-10-13 19:23:00,55.6,32.9,29.91,NNE,28,0.0,0.0,42,0.00,,SKC,0.00,VWS V14.01,2013-10-13 23:23:00,
2013-10-13 19:28:00,55.2,33.1,29.91,NNE,28,0.0,0.0,43,0.00,,SKC,0.00,VWS V14.01,2013-10-13 23:28:00,
2013-10-13 19:33:00,55.0,33.5,29.91,NNE,28,0.0,0.0,44,0.00,,SKC,0.00,VWS V14.01,2013-10-13 23:33:00,
2013-10-13 19:38:00,54.9,33.9,29.91,NNE,28,0.0,0.0,45,0.00,,SKC,0.00,VWS V14.01,2013-10-13 23:38:00,
2013-10-13 19:43:00,54.7,34.3,29.91,NNE,28,0.0,0.0,46,0.00,,SKC,0.00,VWS V14.01,2013-10-13 23:43:00,
2013-10-13 19:48:00,54.7,34.3,29.91,NNE,28,0.0,0.0,46,0.00,,SKC,0.00,VWS V14.01,2013-10-13 23:48:00,
2013-10-13 19:53:00,54.7,34.9,29.91,North,3,4.0,4.0,47,0.00,,SKC,0.00,VWS V14.01,2013-10-13 23:53:00,
2013-10-13 19:58:00,54.7,34.9,29.91,NNW,333,0.0,0.0,47,0.00,,SKC,0.00,VWS V14.01,2013-10-13 23:58:00,
2013-10-13 20:03:00,54.7,34.9,29.91,NNW,333,0.0,0.0,47,0.00,,SKC,0.00,VWS V14.01,2013-10-14 00:03:00,
2013-10-13 20:08:00,54.3,34.5,29.91,NNW,338,0.0,0.0,47,0.00,,SKC,0.00,VWS V14.01,2013-10-14 00:08:00,
2013-10-13 20:13:00,53.8,34.6,29.91,NNW,338,0.0,0.0,48,0.00,,SKC,0.00,VWS V14.01,2013-10-14 00:13:00,
2013-10-13 20:18:00,53.6,34.4,29.91,NNW,338,0.0,0.0,48,0.00,,SKC,0.00,VWS V14.01,2013-10-14 00:18:00,
2013-10-13 20:23:00,53.4,34.8,29.91,NNW,338,0.0,0.0,49,0.00,,SKC,0.00,VWS V14.01,2013-10-14 00:23:00,
2013-10-13 20:28:00,53.2,34.6,29.91,NNW,338,0.0,0.0,49,0.00,,SKC,0.00,VWS V14.01,2013-10-14 00:28:00,
2013-10-13 20:33:00,53.1,34.4,29.91,NNW,338,0.0,0.0,49,0.00,,SKC,0.00,VWS V14.01,2013-10-14 00:33:00,
2013-10-13 20:38:00,53.1,34.9,29.91,NNW,337,0.0,0.0,50,0.00,,SKC,0.00,VWS V14.01,2013-10-14 00:38:00,
2013-10-13 20:43:00,53.1,34.9,29.91,NNW,338,0.0,0.0,50,0.00,,SKC,0.00,VWS V14.01,2013-10-14 00:43:00,
2013-10-13 20:48:00,53.1,34.9,29.91,NNW,338,0.0,0.0,50,0.00,,SKC,0.00,VWS V14.01,2013-10-14 00:48:00,
2013-10-13 20:53:00,53.1,34.9,29.91,NNW,338,0.0,0.0,50,0.00,,SKC,0.00,VWS V14.01,2013-10-14 00:53:00,
2013-10-13 20:58:00,53.1,35.4,29.91,NNW,338,0.0,0.0,51,0.00,,SKC,0.00,VWS V14.01,2013-10-14 00:58:00,
2013-10-13 21:03:00,52.9,35.3,29.91,NNW,338,0.0,0.0,51,0.00,,SKC,0.00,VWS V14.01,2013-10-14 01:03:00,
2013-10-13 21:08:00,52.7,35.1,29.91,NNW,338,0.0,0.0,51,0.00,,SKC,0.00,VWS V14.01,2013-10-14 01:08:00,
2013-10-13 21:13:00,52.5,34.9,29.91,NNW,338,0.0,0.0,51,0.00,,SKC,0.00,VWS V14.01,2013-10-14 01:13:00,
2013-10-13 21:18:00,52.3,35.2,29.91,NNW,338,0.0,0.0,52,0.00,,SKC,0.00,VWS V14.01,2013-10-14 01:18:00,
2013-10-13 21:23:00,52.2,35.1,29.91,NNW,338,0.0,0.0,52,0.00,,SKC,0.00,VWS V14.01,2013-10-14 01:23:00,
2013-10-13 21:28:00,52.0,34.9,29.91,NNW,338,0.0,0.0,52,0.00,,SKC,0.00,VWS V14.01,2013-10-14 01:28:00,
2013-10-13 21:33:00,52.0,34.9,29.91,NNW,338,0.0,0.0,52,0.00,,SKC,0.00,VWS V14.01,2013-10-14 01:33:00,
2013-10-13 21:38:00,51.8,35.2,29.91,NNW,338,0.0,0.0,53,0.00,,SKC,0.00,VWS V14.01,2013-10-14 01:38:00,
2013-10-13 21:43:00,52.0,35.4,29.91,NNW,338,0.0,0.0,53,0.00,,SKC,0.00,VWS V14.01,2013-10-14 01:43:00,
2013-10-13 21:48:00,52.0,35.4,29.91,NNW,338,0.0,0.0,53,0.00,,SKC,0.00,VWS V14.01,2013-10-14 01:48:00,
2013-10-13 21:53:00,51.8,35.2,29.91,NNW,338,0.0,0.0,53,0.00,,SKC,0.00,VWS V14.01,2013-10-14 01:53:00,
2013-10-13 21:58:00,51.8,35.7,29.91,NNW,338,0.0,0.0,54,0.00,,SKC,0.00,VWS V14.01,2013-10-14 01:58:00,
2013-10-13 22:03:00,51.6,35.5,29.91,NNW,338,0.0,0.0,54,0.00,,SKC,0.00,VWS V14.01,2013-10-14 02:03:00,
2013-10-13 22:08:00,51.4,35.4,29.91,NNW,338,0.0,0.0,54,0.00,,SKC,0.00,VWS V14.01,2013-10-14 02:08:00,
2013-10-13 22:13:00,51.1,35.0,29.91,NNW,338,0.0,0.0,54,0.00,,SKC,0.00,VWS V14.01,2013-10-14 02:13:00,
2013-10-13 22:18:00,50.9,35.3,29.91,NNW,338,0.0,0.0,55,0.00,,SKC,0.00,VWS V14.01,2013-10-14 02:18:00,
2013-10-13 22:23:00,50.7,35.2,29.91,NNW,338,0.0,0.0,55,0.00,,SKC,0.00,VWS V14.01,2013-10-14 02:23:00,
2013-10-13 22:28:00,50.5,35.0,29.91,NNW,338,0.0,0.0,55,0.00,,SKC,0.00,VWS V14.01,2013-10-14 02:28:00,
2013-10-13 22:33:00,50.4,34.8,29.91,NNW,338,0.0,0.0,55,0.00,,SKC,0.00,VWS V14.01,2013-10-14 02:33:00,
2013-10-13 22:38:00,50.2,34.7,29.91,NNW,338,0.0,0.0,55,0.00,,SKC,0.00,VWS V14.01,2013-10-14 02:38:00,
2013-10-13 22:43:00,50.2,35.1,29.91,NNW,338,0.0,0.0,56,0.00,,SKC,0.00,VWS V14.01,2013-10-14 02:43:00,
2013-10-13 22:48:00,50.0,34.9,29.91,NNW,338,0.0,0.0,56,0.00,,SKC,0.00,VWS V14.01,2013-10-14 02:48:00,
2013-10-13 22:53:00,50.0,35.4,29.91,NNW,338,0.0,0.0,57,0.00,,SKC,0.00,VWS V14.01,2013-10-14 02:53:00,
2013-10-13 22:58:00,50.0,35.4,29.91,NNW,338,0.0,0.0,57,0.00,,SKC,0.00,VWS V14.01,2013-10-14 02:58:00,
2013-10-13 23:03:00,50.0,35.4,29.91,NNW,338,0.0,0.0,57,0.00,,SKC,0.00,VWS V14.01,2013-10-14 03:03:00,
2013-10-13 23:08:00,50.2,36.0,29.91,NNW,338,0.0,0.0,58,0.00,,SKC,0.00,VWS V14.01,2013-10-14 03:08:00,
2013-10-13 23:13:00,50.2,36.0,29.91,NNW,338,0.0,0.0,58,0.00,,SKC,0.00,VWS V14.01,2013-10-14 03:13:00,
2013-10-13 23:18:00,51.1,38.1,29.91,NNW,338,0.0,0.0,61,0.00,,SKC,0.00,VWS V14.01,2013-10-14 03:18:00,
2013-10-13 23:23:00,51.4,37.6,29.91,NNW,338,0.0,0.0,59,0.00,,SKC,0.00,VWS V14.01,2013-10-14 03:23:00,
2013-10-13 23:28:00,51.3,37.4,29.91,NNW,338,0.0,0.0,59,0.00,,SKC,0.00,VWS V14.01,2013-10-14 03:28:00,
2013-10-13 23:33:00,50.9,37.5,29.91,NNW,338,0.0,0.0,60,0.00,,SKC,0.00,VWS V14.01,2013-10-14 03:33:00,
2013-10-13 23:38:00,50.9,37.5,29.91,NNW,338,0.0,0.0,60,0.00,,SKC,0.00,VWS V14.01,2013-10-14 03:38:00,
2013-10-13 23:43:00,50.5,37.2,29.91,NNW,338,0.0,0.0,60,0.00,,SKC,0.00,VWS V14.01,2013-10-14 03:43:00,
2013-10-13 23:48:00,50.4,37.4,29.91,NNW,338,0.0,0.0,61,0.00,,SKC,0.00,VWS V14.01,2013-10-14 03:48:00,
2013-10-13 23:53:00,50.4,37.4,29.91,NNW,338,0.0,0.0,61,0.00,,SKC,0.00,VWS V14.01,2013-10-14 03:53:00,
2013-10-13 23:58:00,50.2,37.3,29.91,NNW,338,0.0,0.0,61,0.00,,SKC,0.00,VWS V14.01,2013-10-14 03:58:00,